sensor_id;sensor_type;location;lat;lon;timestamp;P1;durP1;ratioP1;P2;durP2;ratioP2
7525;SDS011;3804;50.860;6.208;2023-04-25T00:00:17;8.30;;;4.63;;
7525;SDS011;3804;50.860;6.208;2023-04-25T00:02:44;10.83;;;4.50;;
7525;SDS011;3804;50.860;6.208;2023-04-25T00:05:11;9.90;;;4.73;;
7525;SDS011;3804;50.860;6.208;2023-04-25T00:07:38;13.10;;;6.13;;
7525;SDS011;3804;50.860;6.208;2023-04-25T00:10:05;12.70;;;5.33;;
7525;SDS011;3804;50.860;6.208;2023-04-25T00:12:32;14.30;;;5.03;;
7525;SDS011;3804;50.860;6.208;2023-04-25T00:15:00;14.30;;;5.00;;
7525;SDS011;3804;50.860;6.208;2023-04-25T00:17:26;10.13;;;5.10;;
7525;SDS011;3804;50.860;6.208;2023-04-25T00:19:53;11.10;;;4.87;;
7525;SDS011;3804;50.860;6.208;2023-04-25T00:22:20;12.77;;;5.20;;
7525;SDS011;3804;50.860;6.208;2023-04-25T00:24:47;9.80;;;4.77;;
7525;SDS011;3804;50.860;6.208;2023-04-25T00:27:14;12.87;;;5.70;;
7525;SDS011;3804;50.860;6.208;2023-04-25T00:29:41;13.87;;;5.63;;
7525;SDS011;3804;50.860;6.208;2023-04-25T00:32:08;8.77;;;5.60;;
7525;SDS011;3804;50.860;6.208;2023-04-25T00:34:35;9.57;;;4.47;;
7525;SDS011;3804;50.860;6.208;2023-04-25T00:37:01;16.33;;;5.77;;
7525;SDS011;3804;50.860;6.208;2023-04-25T00:39:28;14.97;;;5.50;;
7525;SDS011;3804;50.860;6.208;2023-04-25T00:41:55;9.70;;;5.03;;
7525;SDS011;3804;50.860;6.208;2023-04-25T00:44:22;12.60;;;5.07;;
7525;SDS011;3804;50.860;6.208;2023-04-25T00:46:49;10.53;;;5.47;;
7525;SDS011;3804;50.860;6.208;2023-04-25T00:49:17;10.77;;;5.03;;
7525;SDS011;3804;50.860;6.208;2023-04-25T00:51:43;9.73;;;4.67;;
7525;SDS011;3804;50.860;6.208;2023-04-25T00:54:11;11.23;;;5.43;;
7525;SDS011;3804;50.860;6.208;2023-04-25T00:56:39;12.37;;;6.07;;
7525;SDS011;3804;50.860;6.208;2023-04-25T00:59:05;14.43;;;5.80;;
7525;SDS011;3804;50.860;6.208;2023-04-25T01:01:32;12.57;;;5.20;;
7525;SDS011;3804;50.860;6.208;2023-04-25T01:03:59;13.80;;;5.40;;
7525;SDS011;3804;50.860;6.208;2023-04-25T01:06:27;13.37;;;4.87;;
7525;SDS011;3804;50.860;6.208;2023-04-25T01:08:54;14.80;;;5.47;;
7525;SDS011;3804;50.860;6.208;2023-04-25T01:11:21;11.67;;;5.77;;
7525;SDS011;3804;50.860;6.208;2023-04-25T01:13:48;14.53;;;5.80;;
7525;SDS011;3804;50.860;6.208;2023-04-25T01:16:16;10.37;;;5.27;;
7525;SDS011;3804;50.860;6.208;2023-04-25T01:18:43;12.73;;;5.33;;
7525;SDS011;3804;50.860;6.208;2023-04-25T01:21:11;11.30;;;5.13;;
7525;SDS011;3804;50.860;6.208;2023-04-25T01:23:40;13.50;;;5.07;;
7525;SDS011;3804;50.860;6.208;2023-04-25T01:26:08;12.20;;;5.30;;
7525;SDS011;3804;50.860;6.208;2023-04-25T01:28:35;11.70;;;4.93;;
7525;SDS011;3804;50.860;6.208;2023-04-25T01:31:03;17.50;;;6.47;;
7525;SDS011;3804;50.860;6.208;2023-04-25T01:33:30;13.50;;;4.70;;
7525;SDS011;3804;50.860;6.208;2023-04-25T01:35:57;11.80;;;4.70;;
7525;SDS011;3804;50.860;6.208;2023-04-25T01:38:24;12.93;;;5.83;;
7525;SDS011;3804;50.860;6.208;2023-04-25T01:40:53;28.53;;;5.60;;
7525;SDS011;3804;50.860;6.208;2023-04-25T01:43:20;14.40;;;5.30;;
7525;SDS011;3804;50.860;6.208;2023-04-25T01:45:47;13.83;;;6.07;;
7525;SDS011;3804;50.860;6.208;2023-04-25T01:48:15;19.57;;;5.10;;
7525;SDS011;3804;50.860;6.208;2023-04-25T01:50:43;11.47;;;5.40;;
7525;SDS011;3804;50.860;6.208;2023-04-25T01:53:11;13.93;;;5.57;;
7525;SDS011;3804;50.860;6.208;2023-04-25T01:55:40;11.60;;;5.10;;
7525;SDS011;3804;50.860;6.208;2023-04-25T01:58:10;10.33;;;4.80;;
7525;SDS011;3804;50.860;6.208;2023-04-25T02:00:57;11.57;;;4.90;;
7525;SDS011;3804;50.860;6.208;2023-04-25T02:03:31;15.93;;;5.43;;
7525;SDS011;3804;50.860;6.208;2023-04-25T02:05:58;15.37;;;5.40;;
7525;SDS011;3804;50.860;6.208;2023-04-25T02:08:26;11.70;;;5.37;;
7525;SDS011;3804;50.860;6.208;2023-04-25T02:10:55;14.87;;;5.53;;
7525;SDS011;3804;50.860;6.208;2023-04-25T02:13:23;14.13;;;4.90;;
7525;SDS011;3804;50.860;6.208;2023-04-25T02:16:12;10.27;;;4.40;;
7525;SDS011;3804;50.860;6.208;2023-04-25T02:18:40;17.83;;;5.50;;
7525;SDS011;3804;50.860;6.208;2023-04-25T02:21:07;12.77;;;5.30;;
7525;SDS011;3804;50.860;6.208;2023-04-25T02:23:35;11.03;;;4.60;;
7525;SDS011;3804;50.860;6.208;2023-04-25T02:26:02;12.47;;;5.23;;
7525;SDS011;3804;50.860;6.208;2023-04-25T02:28:29;16.33;;;5.90;;
7525;SDS011;3804;50.860;6.208;2023-04-25T02:30:56;13.83;;;5.33;;
7525;SDS011;3804;50.860;6.208;2023-04-25T02:33:23;11.50;;;4.53;;
7525;SDS011;3804;50.860;6.208;2023-04-25T02:35:50;14.20;;;5.37;;
7525;SDS011;3804;50.860;6.208;2023-04-25T02:38:17;13.57;;;5.97;;
7525;SDS011;3804;50.860;6.208;2023-04-25T02:40:43;12.70;;;4.70;;
7525;SDS011;3804;50.860;6.208;2023-04-25T02:43:10;15.87;;;5.07;;
7525;SDS011;3804;50.860;6.208;2023-04-25T02:45:37;14.00;;;5.70;;
7525;SDS011;3804;50.860;6.208;2023-04-25T02:48:04;16.10;;;5.00;;
7525;SDS011;3804;50.860;6.208;2023-04-25T02:50:31;14.80;;;4.77;;
7525;SDS011;3804;50.860;6.208;2023-04-25T02:52:59;10.97;;;5.27;;
7525;SDS011;3804;50.860;6.208;2023-04-25T02:55:32;21.83;;;5.50;;
7525;SDS011;3804;50.860;6.208;2023-04-25T02:58:01;11.50;;;5.63;;
7525;SDS011;3804;50.860;6.208;2023-04-25T03:00:44;12.63;;;5.47;;
7525;SDS011;3804;50.860;6.208;2023-04-25T03:03:12;10.30;;;4.83;;
7525;SDS011;3804;50.860;6.208;2023-04-25T03:05:39;11.93;;;5.10;;
7525;SDS011;3804;50.860;6.208;2023-04-25T03:08:05;19.30;;;5.30;;
7525;SDS011;3804;50.860;6.208;2023-04-25T03:10:33;14.13;;;6.00;;
7525;SDS011;3804;50.860;6.208;2023-04-25T03:13:04;17.67;;;5.60;;
7525;SDS011;3804;50.860;6.208;2023-04-25T03:15:32;14.17;;;6.27;;
7525;SDS011;3804;50.860;6.208;2023-04-25T03:17:58;12.13;;;5.17;;
7525;SDS011;3804;50.860;6.208;2023-04-25T03:20:25;12.93;;;5.30;;
7525;SDS011;3804;50.860;6.208;2023-04-25T03:22:52;13.80;;;5.03;;
7525;SDS011;3804;50.860;6.208;2023-04-25T03:25:19;14.93;;;5.43;;
7525;SDS011;3804;50.860;6.208;2023-04-25T03:27:46;13.93;;;5.60;;
7525;SDS011;3804;50.860;6.208;2023-04-25T03:30:12;13.73;;;5.33;;
7525;SDS011;3804;50.860;6.208;2023-04-25T03:32:41;13.20;;;5.20;;
7525;SDS011;3804;50.860;6.208;2023-04-25T03:35:08;13.13;;;5.23;;
7525;SDS011;3804;50.860;6.208;2023-04-25T03:37:35;12.87;;;4.87;;
7525;SDS011;3804;50.860;6.208;2023-04-25T03:40:02;11.63;;;5.20;;
7525;SDS011;3804;50.860;6.208;2023-04-25T03:42:49;13.30;;;5.43;;
7525;SDS011;3804;50.860;6.208;2023-04-25T03:45:17;13.80;;;5.70;;
7525;SDS011;3804;50.860;6.208;2023-04-25T03:47:44;14.83;;;5.20;;
7525;SDS011;3804;50.860;6.208;2023-04-25T03:50:11;12.40;;;5.30;;
7525;SDS011;3804;50.860;6.208;2023-04-25T03:52:37;12.67;;;5.40;;
7525;SDS011;3804;50.860;6.208;2023-04-25T03:55:04;12.73;;;5.13;;
7525;SDS011;3804;50.860;6.208;2023-04-25T03:57:31;11.87;;;5.27;;
7525;SDS011;3804;50.860;6.208;2023-04-25T03:59:58;10.90;;;5.00;;
7525;SDS011;3804;50.860;6.208;2023-04-25T04:02:28;11.90;;;6.20;;
7525;SDS011;3804;50.860;6.208;2023-04-25T04:04:55;20.57;;;4.73;;
7525;SDS011;3804;50.860;6.208;2023-04-25T04:07:23;12.50;;;5.03;;
7525;SDS011;3804;50.860;6.208;2023-04-25T04:09:54;15.47;;;5.20;;
7525;SDS011;3804;50.860;6.208;2023-04-25T04:12:29;14.47;;;5.40;;
7525;SDS011;3804;50.860;6.208;2023-04-25T04:14:57;18.00;;;5.50;;
7525;SDS011;3804;50.860;6.208;2023-04-25T04:17:24;11.90;;;5.27;;
7525;SDS011;3804;50.860;6.208;2023-04-25T04:19:52;15.83;;;4.87;;
7525;SDS011;3804;50.860;6.208;2023-04-25T04:22:19;17.20;;;5.10;;
7525;SDS011;3804;50.860;6.208;2023-04-25T04:24:47;9.83;;;4.73;;
7525;SDS011;3804;50.860;6.208;2023-04-25T04:27:19;15.77;;;5.60;;
7525;SDS011;3804;50.860;6.208;2023-04-25T04:30:00;15.00;;;4.97;;
7525;SDS011;3804;50.860;6.208;2023-04-25T04:32:31;16.73;;;5.97;;
7525;SDS011;3804;50.860;6.208;2023-04-25T04:35:02;15.10;;;4.97;;
7525;SDS011;3804;50.860;6.208;2023-04-25T04:37:30;12.67;;;5.33;;
7525;SDS011;3804;50.860;6.208;2023-04-25T04:39:58;12.17;;;5.07;;
7525;SDS011;3804;50.860;6.208;2023-04-25T04:42:31;13.57;;;5.20;;
7525;SDS011;3804;50.860;6.208;2023-04-25T04:45:16;16.93;;;5.17;;
7525;SDS011;3804;50.860;6.208;2023-04-25T04:47:58;16.63;;;5.67;;
7525;SDS011;3804;50.860;6.208;2023-04-25T04:50:45;15.43;;;5.47;;
7525;SDS011;3804;50.860;6.208;2023-04-25T04:53:43;12.83;;;5.10;;
7525;SDS011;3804;50.860;6.208;2023-04-25T04:56:30;20.70;;;6.13;;
7525;SDS011;3804;50.860;6.208;2023-04-25T04:59:13;12.50;;;4.93;;
7525;SDS011;3804;50.860;6.208;2023-04-25T05:02:03;10.67;;;4.93;;
7525;SDS011;3804;50.860;6.208;2023-04-25T05:04:56;16.20;;;5.27;;
7525;SDS011;3804;50.860;6.208;2023-04-25T05:07:36;15.97;;;5.70;;
7525;SDS011;3804;50.860;6.208;2023-04-25T05:10:23;15.57;;;6.60;;
7525;SDS011;3804;50.860;6.208;2023-04-25T05:12:55;17.03;;;5.53;;
7525;SDS011;3804;50.860;6.208;2023-04-25T05:15:40;21.27;;;6.57;;
7525;SDS011;3804;50.860;6.208;2023-04-25T05:18:21;19.07;;;5.67;;
7525;SDS011;3804;50.860;6.208;2023-04-25T05:21:06;17.33;;;6.47;;
7525;SDS011;3804;50.860;6.208;2023-04-25T05:23:51;17.20;;;6.07;;
7525;SDS011;3804;50.860;6.208;2023-04-25T05:26:31;19.57;;;6.00;;
7525;SDS011;3804;50.860;6.208;2023-04-25T05:29:12;15.63;;;6.17;;
7525;SDS011;3804;50.860;6.208;2023-04-25T05:31:59;14.43;;;6.03;;
7525;SDS011;3804;50.860;6.208;2023-04-25T05:34:26;15.73;;;5.70;;
7525;SDS011;3804;50.860;6.208;2023-04-25T05:36:56;17.63;;;6.03;;
7525;SDS011;3804;50.860;6.208;2023-04-25T05:39:23;17.13;;;5.87;;
7525;SDS011;3804;50.860;6.208;2023-04-25T05:42:26;17.20;;;5.77;;
7525;SDS011;3804;50.860;6.208;2023-04-25T05:45:11;14.80;;;5.93;;
7525;SDS011;3804;50.860;6.208;2023-04-25T05:47:47;15.07;;;6.10;;
7525;SDS011;3804;50.860;6.208;2023-04-25T05:50:37;19.23;;;6.20;;
7525;SDS011;3804;50.860;6.208;2023-04-25T05:53:41;20.53;;;6.30;;
7525;SDS011;3804;50.860;6.208;2023-04-25T05:56:07;13.50;;;5.90;;
7525;SDS011;3804;50.860;6.208;2023-04-25T05:58:34;13.10;;;5.60;;
7525;SDS011;3804;50.860;6.208;2023-04-25T06:01:01;17.40;;;6.00;;
7525;SDS011;3804;50.860;6.208;2023-04-25T06:03:29;15.43;;;6.00;;
7525;SDS011;3804;50.860;6.208;2023-04-25T06:05:57;15.17;;;5.63;;
7525;SDS011;3804;50.860;6.208;2023-04-25T06:08:25;17.23;;;5.47;;
7525;SDS011;3804;50.860;6.208;2023-04-25T06:10:51;15.97;;;5.37;;
7525;SDS011;3804;50.860;6.208;2023-04-25T06:13:18;15.43;;;5.40;;
7525;SDS011;3804;50.860;6.208;2023-04-25T06:15:45;9.30;;;4.50;;
7525;SDS011;3804;50.860;6.208;2023-04-25T06:18:12;14.90;;;5.30;;
7525;SDS011;3804;50.860;6.208;2023-04-25T06:20:39;11.43;;;4.20;;
7525;SDS011;3804;50.860;6.208;2023-04-25T06:23:06;17.33;;;5.00;;
7525;SDS011;3804;50.860;6.208;2023-04-25T06:25:47;12.57;;;4.50;;
7525;SDS011;3804;50.860;6.208;2023-04-25T06:28:14;11.07;;;4.10;;
7525;SDS011;3804;50.860;6.208;2023-04-25T06:30:42;13.20;;;4.13;;
7525;SDS011;3804;50.860;6.208;2023-04-25T06:33:12;10.30;;;3.73;;
7525;SDS011;3804;50.860;6.208;2023-04-25T06:35:40;14.00;;;4.20;;
7525;SDS011;3804;50.860;6.208;2023-04-25T06:38:10;11.47;;;3.87;;
7525;SDS011;3804;50.860;6.208;2023-04-25T06:40:39;9.97;;;4.23;;
7525;SDS011;3804;50.860;6.208;2023-04-25T06:43:07;9.53;;;3.70;;
7525;SDS011;3804;50.860;6.208;2023-04-25T06:46:02;12.40;;;3.57;;
7525;SDS011;3804;50.860;6.208;2023-04-25T06:48:31;13.80;;;3.40;;
7525;SDS011;3804;50.860;6.208;2023-04-25T06:50:59;10.83;;;3.53;;
7525;SDS011;3804;50.860;6.208;2023-04-25T06:53:27;10.17;;;3.53;;
7525;SDS011;3804;50.860;6.208;2023-04-25T06:55:58;8.80;;;3.33;;
7525;SDS011;3804;50.860;6.208;2023-04-25T06:58:33;10.63;;;3.07;;
7525;SDS011;3804;50.860;6.208;2023-04-25T07:01:13;9.97;;;3.73;;
7525;SDS011;3804;50.860;6.208;2023-04-25T07:03:41;8.63;;;3.03;;
7525;SDS011;3804;50.860;6.208;2023-04-25T07:06:13;11.23;;;3.40;;
7525;SDS011;3804;50.860;6.208;2023-04-25T07:08:41;8.70;;;2.80;;
7525;SDS011;3804;50.860;6.208;2023-04-25T07:11:07;12.00;;;3.33;;
7525;SDS011;3804;50.860;6.208;2023-04-25T07:13:35;10.60;;;3.90;;
7525;SDS011;3804;50.860;6.208;2023-04-25T07:16:03;13.37;;;3.57;;
7525;SDS011;3804;50.860;6.208;2023-04-25T07:18:32;10.50;;;3.43;;
7525;SDS011;3804;50.860;6.208;2023-04-25T07:21:00;11.47;;;3.50;;
7525;SDS011;3804;50.860;6.208;2023-04-25T07:23:28;9.87;;;3.50;;
7525;SDS011;3804;50.860;6.208;2023-04-25T07:25:58;10.97;;;3.63;;
7525;SDS011;3804;50.860;6.208;2023-04-25T07:28:26;10.33;;;3.17;;
7525;SDS011;3804;50.860;6.208;2023-04-25T07:30:53;6.20;;;3.13;;
7525;SDS011;3804;50.860;6.208;2023-04-25T07:33:20;12.57;;;3.80;;
7525;SDS011;3804;50.860;6.208;2023-04-25T07:35:47;9.77;;;3.53;;
7525;SDS011;3804;50.860;6.208;2023-04-25T07:38:14;9.53;;;4.07;;
7525;SDS011;3804;50.860;6.208;2023-04-25T07:40:41;11.57;;;3.73;;
7525;SDS011;3804;50.860;6.208;2023-04-25T07:43:10;14.87;;;3.07;;
7525;SDS011;3804;50.860;6.208;2023-04-25T07:45:46;14.50;;;3.60;;
7525;SDS011;3804;50.860;6.208;2023-04-25T07:48:16;7.50;;;2.57;;
7525;SDS011;3804;50.860;6.208;2023-04-25T07:50:45;8.23;;;2.87;;
7525;SDS011;3804;50.860;6.208;2023-04-25T07:53:13;10.23;;;2.83;;
7525;SDS011;3804;50.860;6.208;2023-04-25T07:55:48;12.70;;;3.17;;
7525;SDS011;3804;50.860;6.208;2023-04-25T07:58:16;10.77;;;3.30;;
7525;SDS011;3804;50.860;6.208;2023-04-25T08:00:51;7.60;;;2.47;;
7525;SDS011;3804;50.860;6.208;2023-04-25T08:03:44;6.70;;;2.50;;
7525;SDS011;3804;50.860;6.208;2023-04-25T08:06:25;5.70;;;2.90;;
7525;SDS011;3804;50.860;6.208;2023-04-25T08:09:06;5.37;;;1.83;;
7525;SDS011;3804;50.860;6.208;2023-04-25T08:11:37;4.63;;;2.27;;
7525;SDS011;3804;50.860;6.208;2023-04-25T08:14:06;6.27;;;2.07;;
7525;SDS011;3804;50.860;6.208;2023-04-25T08:16:34;7.17;;;2.13;;
7525;SDS011;3804;50.860;6.208;2023-04-25T08:19:01;5.20;;;2.70;;
7525;SDS011;3804;50.860;6.208;2023-04-25T08:21:28;13.17;;;2.37;;
7525;SDS011;3804;50.860;6.208;2023-04-25T08:23:58;9.60;;;2.13;;
7525;SDS011;3804;50.860;6.208;2023-04-25T08:26:28;6.37;;;2.10;;
7525;SDS011;3804;50.860;6.208;2023-04-25T08:28:56;7.23;;;2.20;;
7525;SDS011;3804;50.860;6.208;2023-04-25T08:31:23;12.37;;;3.10;;
7525;SDS011;3804;50.860;6.208;2023-04-25T08:33:59;6.37;;;2.37;;
7525;SDS011;3804;50.860;6.208;2023-04-25T08:36:36;6.23;;;2.53;;
7525;SDS011;3804;50.860;6.208;2023-04-25T08:39:22;4.13;;;1.97;;
7525;SDS011;3804;50.860;6.208;2023-04-25T08:42:12;7.40;;;2.10;;
7525;SDS011;3804;50.860;6.208;2023-04-25T08:44:39;6.43;;;2.30;;
7525;SDS011;3804;50.860;6.208;2023-04-25T08:47:06;4.27;;;1.83;;
7525;SDS011;3804;50.860;6.208;2023-04-25T08:49:41;8.33;;;2.30;;
7525;SDS011;3804;50.860;6.208;2023-04-25T08:52:11;6.60;;;2.40;;
7525;SDS011;3804;50.860;6.208;2023-04-25T08:54:43;5.13;;;1.60;;
7525;SDS011;3804;50.860;6.208;2023-04-25T08:57:13;6.77;;;2.20;;
7525;SDS011;3804;50.860;6.208;2023-04-25T08:59:42;8.37;;;2.83;;
7525;SDS011;3804;50.860;6.208;2023-04-25T09:02:12;5.03;;;1.80;;
7525;SDS011;3804;50.860;6.208;2023-04-25T09:04:47;6.70;;;2.30;;
7525;SDS011;3804;50.860;6.208;2023-04-25T09:07:14;5.17;;;1.87;;
7525;SDS011;3804;50.860;6.208;2023-04-25T09:09:45;6.60;;;2.13;;
7525;SDS011;3804;50.860;6.208;2023-04-25T09:12:16;6.40;;;2.30;;
7525;SDS011;3804;50.860;6.208;2023-04-25T09:14:46;6.53;;;2.27;;
7525;SDS011;3804;50.860;6.208;2023-04-25T09:17:41;6.80;;;2.63;;
7525;SDS011;3804;50.860;6.208;2023-04-25T09:20:14;6.37;;;2.27;;
7525;SDS011;3804;50.860;6.208;2023-04-25T09:22:41;6.87;;;2.43;;
7525;SDS011;3804;50.860;6.208;2023-04-25T09:25:10;5.03;;;2.47;;
7525;SDS011;3804;50.860;6.208;2023-04-25T09:27:52;8.03;;;2.47;;
7525;SDS011;3804;50.860;6.208;2023-04-25T09:30:31;6.50;;;2.40;;
7525;SDS011;3804;50.860;6.208;2023-04-25T09:33:08;6.03;;;2.53;;
7525;SDS011;3804;50.860;6.208;2023-04-25T09:35:42;9.23;;;2.67;;
7525;SDS011;3804;50.860;6.208;2023-04-25T09:38:18;5.97;;;2.40;;
7525;SDS011;3804;50.860;6.208;2023-04-25T09:41:03;10.20;;;2.63;;
7525;SDS011;3804;50.860;6.208;2023-04-25T09:43:37;8.03;;;2.90;;
7525;SDS011;3804;50.860;6.208;2023-04-25T09:46:10;9.47;;;2.73;;
7525;SDS011;3804;50.860;6.208;2023-04-25T09:48:47;7.00;;;2.77;;
7525;SDS011;3804;50.860;6.208;2023-04-25T09:51:16;6.47;;;2.20;;
7525;SDS011;3804;50.860;6.208;2023-04-25T09:53:45;10.57;;;2.90;;
7525;SDS011;3804;50.860;6.208;2023-04-25T09:56:29;7.50;;;2.67;;
7525;SDS011;3804;50.860;6.208;2023-04-25T09:59:00;8.40;;;2.87;;
7525;SDS011;3804;50.860;6.208;2023-04-25T10:01:28;8.37;;;3.23;;
7525;SDS011;3804;50.860;6.208;2023-04-25T10:04:05;7.17;;;2.63;;
7525;SDS011;3804;50.860;6.208;2023-04-25T10:06:51;5.10;;;2.13;;
7525;SDS011;3804;50.860;6.208;2023-04-25T10:09:20;6.67;;;2.50;;
7525;SDS011;3804;50.860;6.208;2023-04-25T10:11:47;9.97;;;2.23;;
7525;SDS011;3804;50.860;6.208;2023-04-25T10:14:14;3.70;;;2.43;;
7525;SDS011;3804;50.860;6.208;2023-04-25T10:16:42;5.87;;;2.73;;
7525;SDS011;3804;50.860;6.208;2023-04-25T10:19:09;6.60;;;2.43;;
7525;SDS011;3804;50.860;6.208;2023-04-25T10:21:38;5.63;;;2.80;;
7525;SDS011;3804;50.860;6.208;2023-04-25T10:24:07;6.10;;;2.60;;
7525;SDS011;3804;50.860;6.208;2023-04-25T10:26:34;7.67;;;2.20;;
7525;SDS011;3804;50.860;6.208;2023-04-25T10:29:01;5.43;;;2.70;;
7525;SDS011;3804;50.860;6.208;2023-04-25T10:31:29;5.73;;;2.77;;
7525;SDS011;3804;50.860;6.208;2023-04-25T10:33:57;5.67;;;2.13;;
7525;SDS011;3804;50.860;6.208;2023-04-25T10:36:24;4.70;;;2.07;;
7525;SDS011;3804;50.860;6.208;2023-04-25T10:38:53;8.70;;;2.80;;
7525;SDS011;3804;50.860;6.208;2023-04-25T10:41:21;5.43;;;2.20;;
7525;SDS011;3804;50.860;6.208;2023-04-25T10:43:49;8.73;;;2.87;;
7525;SDS011;3804;50.860;6.208;2023-04-25T10:46:25;6.63;;;2.60;;
7525;SDS011;3804;50.860;6.208;2023-04-25T10:48:54;6.90;;;2.50;;
7525;SDS011;3804;50.860;6.208;2023-04-25T10:51:22;7.17;;;2.33;;
7525;SDS011;3804;50.860;6.208;2023-04-25T10:56:22;6.40;;;2.40;;
7525;SDS011;3804;50.860;6.208;2023-04-25T10:58:49;6.87;;;2.30;;
7525;SDS011;3804;50.860;6.208;2023-04-25T11:01:21;5.90;;;2.00;;
7525;SDS011;3804;50.860;6.208;2023-04-25T11:03:56;5.13;;;2.37;;
7525;SDS011;3804;50.860;6.208;2023-04-25T11:06:46;6.47;;;2.37;;
7525;SDS011;3804;50.860;6.208;2023-04-25T11:09:26;4.77;;;2.67;;
7525;SDS011;3804;50.860;6.208;2023-04-25T11:11:56;5.07;;;2.60;;
7525;SDS011;3804;50.860;6.208;2023-04-25T11:14:23;9.47;;;2.30;;
7525;SDS011;3804;50.860;6.208;2023-04-25T11:16:53;8.27;;;2.33;;
7525;SDS011;3804;50.860;6.208;2023-04-25T11:19:25;8.43;;;2.50;;
7525;SDS011;3804;50.860;6.208;2023-04-25T11:21:59;6.07;;;2.23;;
7525;SDS011;3804;50.860;6.208;2023-04-25T11:24:33;8.77;;;2.73;;
7525;SDS011;3804;50.860;6.208;2023-04-25T11:27:01;6.27;;;2.80;;
7525;SDS011;3804;50.860;6.208;2023-04-25T11:29:33;5.23;;;2.30;;
7525;SDS011;3804;50.860;6.208;2023-04-25T11:32:00;7.67;;;2.50;;
7525;SDS011;3804;50.860;6.208;2023-04-25T11:34:28;4.67;;;2.47;;
7525;SDS011;3804;50.860;6.208;2023-04-25T11:36:57;8.57;;;2.50;;
7525;SDS011;3804;50.860;6.208;2023-04-25T11:39:24;7.10;;;2.77;;
7525;SDS011;3804;50.860;6.208;2023-04-25T11:41:51;9.23;;;2.60;;
7525;SDS011;3804;50.860;6.208;2023-04-25T11:44:19;6.50;;;2.43;;
7525;SDS011;3804;50.860;6.208;2023-04-25T11:46:46;5.20;;;2.70;;
7525;SDS011;3804;50.860;6.208;2023-04-25T11:49:13;7.47;;;2.70;;
7525;SDS011;3804;50.860;6.208;2023-04-25T11:51:43;4.13;;;2.20;;
7525;SDS011;3804;50.860;6.208;2023-04-25T11:54:11;9.93;;;2.43;;
7525;SDS011;3804;50.860;6.208;2023-04-25T11:56:41;3.13;;;2.03;;
7525;SDS011;3804;50.860;6.208;2023-04-25T11:59:08;3.90;;;2.10;;
7525;SDS011;3804;50.860;6.208;2023-04-25T12:01:37;8.37;;;2.20;;
7525;SDS011;3804;50.860;6.208;2023-04-25T12:04:20;5.00;;;1.90;;
7525;SDS011;3804;50.860;6.208;2023-04-25T12:06:52;6.37;;;2.00;;
7525;SDS011;3804;50.860;6.208;2023-04-25T12:09:20;3.60;;;1.80;;
7525;SDS011;3804;50.860;6.208;2023-04-25T12:11:48;4.03;;;1.70;;
7525;SDS011;3804;50.860;6.208;2023-04-25T12:14:22;4.70;;;1.63;;
7525;SDS011;3804;50.860;6.208;2023-04-25T12:16:50;3.53;;;1.63;;
7525;SDS011;3804;50.860;6.208;2023-04-25T12:19:20;2.93;;;1.47;;
7525;SDS011;3804;50.860;6.208;2023-04-25T12:21:47;5.83;;;1.63;;
7525;SDS011;3804;50.860;6.208;2023-04-25T12:24:25;5.10;;;2.00;;
7525;SDS011;3804;50.860;6.208;2023-04-25T12:27:03;3.53;;;2.30;;
7525;SDS011;3804;50.860;6.208;2023-04-25T12:29:30;4.17;;;2.23;;
7525;SDS011;3804;50.860;6.208;2023-04-25T12:32:13;9.70;;;2.50;;
7525;SDS011;3804;50.860;6.208;2023-04-25T12:34:40;4.53;;;1.70;;
7525;SDS011;3804;50.860;6.208;2023-04-25T12:37:08;3.93;;;1.80;;
7525;SDS011;3804;50.860;6.208;2023-04-25T12:39:34;4.23;;;1.80;;
7525;SDS011;3804;50.860;6.208;2023-04-25T12:42:01;5.97;;;1.77;;
7525;SDS011;3804;50.860;6.208;2023-04-25T12:44:28;3.20;;;1.73;;
7525;SDS011;3804;50.860;6.208;2023-04-25T12:46:55;5.67;;;2.60;;
7525;SDS011;3804;50.860;6.208;2023-04-25T12:49:22;5.37;;;1.77;;
7525;SDS011;3804;50.860;6.208;2023-04-25T12:51:48;5.33;;;2.10;;
7525;SDS011;3804;50.860;6.208;2023-04-25T12:54:15;5.67;;;2.10;;
7525;SDS011;3804;50.860;6.208;2023-04-25T12:56:42;4.30;;;1.60;;
7525;SDS011;3804;50.860;6.208;2023-04-25T12:59:09;4.03;;;1.97;;
7525;SDS011;3804;50.860;6.208;2023-04-25T13:01:36;5.70;;;1.80;;
7525;SDS011;3804;50.860;6.208;2023-04-25T13:04:04;7.67;;;1.87;;
7525;SDS011;3804;50.860;6.208;2023-04-25T13:06:31;2.63;;;1.73;;
7525;SDS011;3804;50.860;6.208;2023-04-25T13:08:57;3.50;;;2.27;;
7525;SDS011;3804;50.860;6.208;2023-04-25T13:11:24;5.07;;;1.70;;
7525;SDS011;3804;50.860;6.208;2023-04-25T13:13:51;5.23;;;2.30;;
7525;SDS011;3804;50.860;6.208;2023-04-25T13:16:19;3.57;;;1.70;;
7525;SDS011;3804;50.860;6.208;2023-04-25T13:18:47;7.13;;;2.27;;
7525;SDS011;3804;50.860;6.208;2023-04-25T13:21:14;4.10;;;2.43;;
7525;SDS011;3804;50.860;6.208;2023-04-25T13:23:42;4.23;;;2.33;;
7525;SDS011;3804;50.860;6.208;2023-04-25T13:26:13;4.87;;;2.03;;
7525;SDS011;3804;50.860;6.208;2023-04-25T13:28:40;2.83;;;1.87;;
7525;SDS011;3804;50.860;6.208;2023-04-25T13:31:10;5.63;;;1.90;;
7525;SDS011;3804;50.860;6.208;2023-04-25T13:33:37;4.13;;;2.30;;
7525;SDS011;3804;50.860;6.208;2023-04-25T13:36:04;6.27;;;2.00;;
7525;SDS011;3804;50.860;6.208;2023-04-25T13:38:31;3.17;;;1.50;;
7525;SDS011;3804;50.860;6.208;2023-04-25T13:40:58;4.93;;;1.90;;
7525;SDS011;3804;50.860;6.208;2023-04-25T13:43:25;6.60;;;1.67;;
7525;SDS011;3804;50.860;6.208;2023-04-25T13:45:52;5.17;;;2.07;;
7525;SDS011;3804;50.860;6.208;2023-04-25T13:48:19;7.70;;;2.20;;
7525;SDS011;3804;50.860;6.208;2023-04-25T13:50:46;3.77;;;2.00;;
7525;SDS011;3804;50.860;6.208;2023-04-25T13:53:13;5.30;;;1.90;;
7525;SDS011;3804;50.860;6.208;2023-04-25T13:55:40;6.27;;;2.33;;
7525;SDS011;3804;50.860;6.208;2023-04-25T13:58:07;3.60;;;1.70;;
7525;SDS011;3804;50.860;6.208;2023-04-25T14:00:38;6.63;;;2.23;;
7525;SDS011;3804;50.860;6.208;2023-04-25T14:03:06;5.17;;;1.80;;
7525;SDS011;3804;50.860;6.208;2023-04-25T14:05:35;3.60;;;1.60;;
7525;SDS011;3804;50.860;6.208;2023-04-25T14:08:06;3.87;;;1.83;;
7525;SDS011;3804;50.860;6.208;2023-04-25T14:10:33;4.50;;;1.90;;
7525;SDS011;3804;50.860;6.208;2023-04-25T14:13:00;3.77;;;2.13;;
7525;SDS011;3804;50.860;6.208;2023-04-25T14:15:27;4.37;;;2.03;;
7525;SDS011;3804;50.860;6.208;2023-04-25T14:17:54;3.00;;;1.50;;
7525;SDS011;3804;50.860;6.208;2023-04-25T14:20:21;4.37;;;1.97;;
7525;SDS011;3804;50.860;6.208;2023-04-25T14:26:02;4.97;;;2.37;;
7525;SDS011;3804;50.860;6.208;2023-04-25T14:28:28;8.97;;;2.30;;
7525;SDS011;3804;50.860;6.208;2023-04-25T14:30:56;5.37;;;2.03;;
7525;SDS011;3804;50.860;6.208;2023-04-25T14:33:23;3.97;;;1.70;;
7525;SDS011;3804;50.860;6.208;2023-04-25T14:35:51;2.63;;;1.60;;
7525;SDS011;3804;50.860;6.208;2023-04-25T14:38:19;6.83;;;2.07;;
7525;SDS011;3804;50.860;6.208;2023-04-25T14:40:49;3.80;;;1.50;;
7525;SDS011;3804;50.860;6.208;2023-04-25T14:43:16;4.30;;;1.57;;
7525;SDS011;3804;50.860;6.208;2023-04-25T14:45:43;7.00;;;1.80;;
7525;SDS011;3804;50.860;6.208;2023-04-25T14:51:45;4.63;;;1.80;;
7525;SDS011;3804;50.860;6.208;2023-04-25T14:54:12;3.00;;;1.70;;
7525;SDS011;3804;50.860;6.208;2023-04-25T14:56:39;3.37;;;1.70;;
7525;SDS011;3804;50.860;6.208;2023-04-25T14:59:06;5.60;;;1.70;;
7525;SDS011;3804;50.860;6.208;2023-04-25T15:01:33;4.30;;;1.77;;
7525;SDS011;3804;50.860;6.208;2023-04-25T15:04:00;3.40;;;1.87;;
7525;SDS011;3804;50.860;6.208;2023-04-25T15:06:27;13.70;;;2.43;;
7525;SDS011;3804;50.860;6.208;2023-04-25T15:08:55;4.47;;;1.73;;
7525;SDS011;3804;50.860;6.208;2023-04-25T15:11:23;4.87;;;1.80;;
7525;SDS011;3804;50.860;6.208;2023-04-25T15:13:50;4.87;;;1.93;;
7525;SDS011;3804;50.860;6.208;2023-04-25T15:16:17;3.03;;;1.40;;
7525;SDS011;3804;50.860;6.208;2023-04-25T15:18:44;4.30;;;1.70;;
7525;SDS011;3804;50.860;6.208;2023-04-25T15:21:11;3.63;;;1.43;;
7525;SDS011;3804;50.860;6.208;2023-04-25T15:23:38;3.23;;;1.50;;
7525;SDS011;3804;50.860;6.208;2023-04-25T15:26:04;6.97;;;1.90;;
7525;SDS011;3804;50.860;6.208;2023-04-25T15:28:31;4.27;;;1.90;;
7525;SDS011;3804;50.860;6.208;2023-04-25T15:31:00;5.23;;;1.80;;
7525;SDS011;3804;50.860;6.208;2023-04-25T15:33:27;3.90;;;1.83;;
7525;SDS011;3804;50.860;6.208;2023-04-25T15:35:54;3.53;;;1.60;;